sensor_id;sensor_type;location;lat;lon;timestamp;temperature;humidity
39427;DHT22;25938;48.470;1.486;2022-12-18T00:01:05;9.70;48.80
39427;DHT22;25938;48.470;1.486;2022-12-18T00:03:38;9.70;48.80
39427;DHT22;25938;48.470;1.486;2022-12-18T00:06:04;9.70;48.80
39427;DHT22;25938;48.470;1.486;2022-12-18T00:08:30;9.60;48.70
39427;DHT22;25938;48.470;1.486;2022-12-18T00:10:55;9.60;48.70
39427;DHT22;25938;48.470;1.486;2022-12-18T00:13:28;9.60;48.70
39427;DHT22;25938;48.470;1.486;2022-12-18T00:15:53;9.60;48.70
39427;DHT22;25938;48.470;1.486;2022-12-18T00:18:19;9.60;48.70
39427;DHT22;25938;48.470;1.486;2022-12-18T00:20:44;9.60;48.70
39427;DHT22;25938;48.470;1.486;2022-12-18T00:23:10;9.60;48.70
39427;DHT22;25938;48.470;1.486;2022-12-18T00:25:36;9.60;48.70
39427;DHT22;25938;48.470;1.486;2022-12-18T00:28:03;9.60;48.70
39427;DHT22;25938;48.470;1.486;2022-12-18T00:30:29;9.60;48.70
39427;DHT22;25938;48.470;1.486;2022-12-18T00:32:55;9.60;48.70
39427;DHT22;25938;48.470;1.486;2022-12-18T00:35:21;9.60;48.70
39427;DHT22;25938;48.470;1.486;2022-12-18T00:37:46;9.60;48.70
39427;DHT22;25938;48.470;1.486;2022-12-18T00:40:12;9.60;48.70
39427;DHT22;25938;48.470;1.486;2022-12-18T00:42:38;9.60;48.70
39427;DHT22;25938;48.470;1.486;2022-12-18T00:45:30;9.60;48.70
39427;DHT22;25938;48.470;1.486;2022-12-18T00:47:56;9.60;48.70
39427;DHT22;25938;48.470;1.486;2022-12-18T00:50:23;9.60;48.70
39427;DHT22;25938;48.470;1.486;2022-12-18T00:52:49;9.60;48.70
39427;DHT22;25938;48.470;1.486;2022-12-18T00:55:15;9.60;48.70
39427;DHT22;25938;48.470;1.486;2022-12-18T00:57:41;9.60;48.70
39427;DHT22;25938;48.470;1.486;2022-12-18T01:00:09;9.60;48.70
39427;DHT22;25938;48.470;1.486;2022-12-18T01:02:35;9.60;48.70
39427;DHT22;25938;48.470;1.486;2022-12-18T01:05:01;9.50;48.50
39427;DHT22;25938;48.470;1.486;2022-12-18T01:07:26;9.60;48.60
39427;DHT22;25938;48.470;1.486;2022-12-18T01:09:52;9.60;48.70
39427;DHT22;25938;48.470;1.486;2022-12-18T01:12:17;9.60;48.60
39427;DHT22;25938;48.470;1.486;2022-12-18T01:14:43;9.50;48.50
39427;DHT22;25938;48.470;1.486;2022-12-18T01:17:09;9.50;48.60
39427;DHT22;25938;48.470;1.486;2022-12-18T01:19:34;9.50;48.60
39427;DHT22;25938;48.470;1.486;2022-12-18T01:22:00;9.50;48.50
39427;DHT22;25938;48.470;1.486;2022-12-18T01:24:25;9.50;48.50
39427;DHT22;25938;48.470;1.486;2022-12-18T01:26:51;9.50;48.60
39427;DHT22;25938;48.470;1.486;2022-12-18T01:29:17;9.50;48.50
39427;DHT22;25938;48.470;1.486;2022-12-18T01:31:42;9.50;48.50
39427;DHT22;25938;48.470;1.486;2022-12-18T01:34:09;9.50;48.60
39427;DHT22;25938;48.470;1.486;2022-12-18T01:36:36;9.50;48.60
39427;DHT22;25938;48.470;1.486;2022-12-18T01:39:08;9.50;48.50
39427;DHT22;25938;48.470;1.486;2022-12-18T01:41:35;9.50;48.50
39427;DHT22;25938;48.470;1.486;2022-12-18T01:50:12;9.50;48.50
39427;DHT22;25938;48.470;1.486;2022-12-18T01:52:38;9.50;48.60
39427;DHT22;25938;48.470;1.486;2022-12-18T01:55:06;9.50;48.50
39427;DHT22;25938;48.470;1.486;2022-12-18T01:57:33;9.50;48.60
39427;DHT22;25938;48.470;1.486;2022-12-18T02:00:02;9.50;48.60
39427;DHT22;25938;48.470;1.486;2022-12-18T02:02:29;9.50;48.60
39427;DHT22;25938;48.470;1.486;2022-12-18T02:04:55;9.50;48.60
39427;DHT22;25938;48.470;1.486;2022-12-18T02:09:57;9.40;48.50
39427;DHT22;25938;48.470;1.486;2022-12-18T02:12:30;9.50;48.60
39427;DHT22;25938;48.470;1.486;2022-12-18T02:15:25;9.50;48.60
39427;DHT22;25938;48.470;1.486;2022-12-18T02:18:11;9.50;48.60
39427;DHT22;25938;48.470;1.486;2022-12-18T02:20:49;9.50;48.60
39427;DHT22;25938;48.470;1.486;2022-12-18T02:28:53;9.50;48.70
39427;DHT22;25938;48.470;1.486;2022-12-18T02:31:25;9.50;48.60
39427;DHT22;25938;48.470;1.486;2022-12-18T02:33:54;9.50;48.70
39427;DHT22;25938;48.470;1.486;2022-12-18T02:36:22;9.40;48.70
39427;DHT22;25938;48.470;1.486;2022-12-18T02:38:49;9.50;48.70
39427;DHT22;25938;48.470;1.486;2022-12-18T02:41:16;9.50;48.70
39427;DHT22;25938;48.470;1.486;2022-12-18T02:43:48;9.50;48.80
39427;DHT22;25938;48.470;1.486;2022-12-18T02:46:27;9.50;48.70
39427;DHT22;25938;48.470;1.486;2022-12-18T02:49:04;9.50;48.70
39427;DHT22;25938;48.470;1.486;2022-12-18T02:54:44;9.50;48.70
39427;DHT22;25938;48.470;1.486;2022-12-18T03:00:21;9.50;48.70
39427;DHT22;25938;48.470;1.486;2022-12-18T03:06:10;9.50;48.70
39427;DHT22;25938;48.470;1.486;2022-12-18T03:08:41;9.50;48.70
39427;DHT22;25938;48.470;1.486;2022-12-18T03:11:12;9.50;48.70
39427;DHT22;25938;48.470;1.486;2022-12-18T03:13:52;9.50;48.70
39427;DHT22;25938;48.470;1.486;2022-12-18T03:16:27;9.50;48.60
39427;DHT22;25938;48.470;1.486;2022-12-18T03:19:01;9.50;48.70
39427;DHT22;25938;48.470;1.486;2022-12-18T03:21:32;9.50;48.60
39427;DHT22;25938;48.470;1.486;2022-12-18T03:23:59;9.50;48.60
39427;DHT22;25938;48.470;1.486;2022-12-18T03:26:27;9.50;48.50
39427;DHT22;25938;48.470;1.486;2022-12-18T03:28:56;9.50;48.50
39427;DHT22;25938;48.470;1.486;2022-12-18T03:31:25;9.50;48.50
39427;DHT22;25938;48.470;1.486;2022-12-18T03:33:54;9.50;48.50
39427;DHT22;25938;48.470;1.486;2022-12-18T03:36:20;9.50;48.50
39427;DHT22;25938;48.470;1.486;2022-12-18T03:38:46;9.50;48.40
39427;DHT22;25938;48.470;1.486;2022-12-18T03:47:28;9.50;48.20
39427;DHT22;25938;48.470;1.486;2022-12-18T03:54:58;9.50;48.10
39427;DHT22;25938;48.470;1.486;2022-12-18T03:57:27;9.50;48.10
39427;DHT22;25938;48.470;1.486;2022-12-18T03:59:57;9.50;48.00
39427;DHT22;25938;48.470;1.486;2022-12-18T04:02:25;9.50;48.00
39427;DHT22;25938;48.470;1.486;2022-12-18T04:04:53;9.50;48.00
39427;DHT22;25938;48.470;1.486;2022-12-18T04:07:22;9.50;48.00
39427;DHT22;25938;48.470;1.486;2022-12-18T04:09:49;9.50;47.90
39427;DHT22;25938;48.470;1.486;2022-12-18T04:12:15;9.50;47.80
39427;DHT22;25938;48.470;1.486;2022-12-18T04:14:41;9.50;47.80
39427;DHT22;25938;48.470;1.486;2022-12-18T04:17:06;9.40;47.70
39427;DHT22;25938;48.470;1.486;2022-12-18T04:19:32;9.50;47.70
39427;DHT22;25938;48.470;1.486;2022-12-18T04:21:58;9.50;47.70
39427;DHT22;25938;48.470;1.486;2022-12-18T04:24:23;9.50;47.70
39427;DHT22;25938;48.470;1.486;2022-12-18T04:26:49;9.50;47.60
39427;DHT22;25938;48.470;1.486;2022-12-18T04:29:15;9.50;47.60
39427;DHT22;25938;48.470;1.486;2022-12-18T04:31:40;9.40;47.50
39427;DHT22;25938;48.470;1.486;2022-12-18T04:34:06;9.40;47.50
39427;DHT22;25938;48.470;1.486;2022-12-18T04:36:31;9.40;47.40
39427;DHT22;25938;48.470;1.486;2022-12-18T04:38:57;9.40;47.40
39427;DHT22;25938;48.470;1.486;2022-12-18T04:41:23;9.40;47.40
39427;DHT22;25938;48.470;1.486;2022-12-18T04:43:48;9.40;47.30
39427;DHT22;25938;48.470;1.486;2022-12-18T04:46:14;9.40;47.30
39427;DHT22;25938;48.470;1.486;2022-12-18T04:48:40;9.40;47.30
39427;DHT22;25938;48.470;1.486;2022-12-18T04:51:06;9.40;47.20
39427;DHT22;25938;48.470;1.486;2022-12-18T04:53:32;9.40;47.20
39427;DHT22;25938;48.470;1.486;2022-12-18T04:56:09;9.40;47.20
39427;DHT22;25938;48.470;1.486;2022-12-18T04:58:36;9.40;47.20
39427;DHT22;25938;48.470;1.486;2022-12-18T05:01:02;9.40;47.10
39427;DHT22;25938;48.470;1.486;2022-12-18T05:03:28;9.40;47.10
39427;DHT22;25938;48.470;1.486;2022-12-18T05:05:54;9.40;47.00
39427;DHT22;25938;48.470;1.486;2022-12-18T05:08:20;9.40;47.00
39427;DHT22;25938;48.470;1.486;2022-12-18T05:10:45;9.40;47.00
39427;DHT22;25938;48.470;1.486;2022-12-18T05:13:11;9.40;47.00
39427;DHT22;25938;48.470;1.486;2022-12-18T05:15:37;9.40;46.90
39427;DHT22;25938;48.470;1.486;2022-12-18T05:18:03;9.40;46.90
39427;DHT22;25938;48.470;1.486;2022-12-18T05:20:29;9.40;46.80
39427;DHT22;25938;48.470;1.486;2022-12-18T05:22:56;9.40;46.80
39427;DHT22;25938;48.470;1.486;2022-12-18T05:25:22;9.40;46.80
39427;DHT22;25938;48.470;1.486;2022-12-18T05:27:48;9.40;46.80
39427;DHT22;25938;48.470;1.486;2022-12-18T05:30:15;9.30;46.70
39427;DHT22;25938;48.470;1.486;2022-12-18T05:32:41;9.30;46.70
39427;DHT22;25938;48.470;1.486;2022-12-18T05:35:09;9.40;46.70
39427;DHT22;25938;48.470;1.486;2022-12-18T05:37:35;9.40;46.70
39427;DHT22;25938;48.470;1.486;2022-12-18T05:40:02;9.30;46.60
39427;DHT22;25938;48.470;1.486;2022-12-18T05:42:28;9.30;46.60
39427;DHT22;25938;48.470;1.486;2022-12-18T05:44:53;9.30;46.60
39427;DHT22;25938;48.470;1.486;2022-12-18T05:47:19;9.30;46.60
39427;DHT22;25938;48.470;1.486;2022-12-18T05:49:45;9.30;46.60
39427;DHT22;25938;48.470;1.486;2022-12-18T05:52:10;9.30;46.60
39427;DHT22;25938;48.470;1.486;2022-12-18T05:54:36;9.30;46.60
39427;DHT22;25938;48.470;1.486;2022-12-18T05:57:02;9.30;46.60
39427;DHT22;25938;48.470;1.486;2022-12-18T05:59:27;9.30;46.60
39427;DHT22;25938;48.470;1.486;2022-12-18T06:01:53;9.30;46.60
39427;DHT22;25938;48.470;1.486;2022-12-18T06:04:18;9.40;46.60
39427;DHT22;25938;48.470;1.486;2022-12-18T06:06:44;9.30;46.60
39427;DHT22;25938;48.470;1.486;2022-12-18T06:09:10;9.30;46.60
39427;DHT22;25938;48.470;1.486;2022-12-18T06:11:36;9.30;46.60
39427;DHT22;25938;48.470;1.486;2022-12-18T06:16:30;9.30;46.10
39427;DHT22;25938;48.470;1.486;2022-12-18T06:18:59;9.30;46.70
39427;DHT22;25938;48.470;1.486;2022-12-18T06:21:26;9.30;46.70
39427;DHT22;25938;48.470;1.486;2022-12-18T06:23:52;9.30;46.70
39427;DHT22;25938;48.470;1.486;2022-12-18T06:26:18;9.30;46.70
39427;DHT22;25938;48.470;1.486;2022-12-18T06:28:43;9.30;46.70
39427;DHT22;25938;48.470;1.486;2022-12-18T06:31:10;9.30;46.80
39427;DHT22;25938;48.470;1.486;2022-12-18T06:33:35;9.30;46.70
39427;DHT22;25938;48.470;1.486;2022-12-18T06:36:03;9.30;46.80
39427;DHT22;25938;48.470;1.486;2022-12-18T06:38:29;9.30;46.70
39427;DHT22;25938;48.470;1.486;2022-12-18T06:40:56;9.30;46.80
39427;DHT22;25938;48.470;1.486;2022-12-18T06:43:21;9.30;46.70
39427;DHT22;25938;48.470;1.486;2022-12-18T06:45:47;9.40;46.80
39427;DHT22;25938;48.470;1.486;2022-12-18T06:48:18;9.30;46.70
39427;DHT22;25938;48.470;1.486;2022-12-18T06:50:44;9.30;46.70
39427;DHT22;25938;48.470;1.486;2022-12-18T06:53:10;9.30;46.70
39427;DHT22;25938;48.470;1.486;2022-12-18T06:55:36;9.30;46.80
39427;DHT22;25938;48.470;1.486;2022-12-18T06:58:01;9.30;46.80
39427;DHT22;25938;48.470;1.486;2022-12-18T07:00:27;9.40;46.80
39427;DHT22;25938;48.470;1.486;2022-12-18T07:02:53;9.40;46.80
39427;DHT22;25938;48.470;1.486;2022-12-18T07:05:18;9.30;46.80
39427;DHT22;25938;48.470;1.486;2022-12-18T07:07:44;9.40;46.80
39427;DHT22;25938;48.470;1.486;2022-12-18T07:10:10;9.30;46.80
39427;DHT22;25938;48.470;1.486;2022-12-18T07:12:35;9.30;46.80
39427;DHT22;25938;48.470;1.486;2022-12-18T07:15:01;9.40;46.80
39427;DHT22;25938;48.470;1.486;2022-12-18T07:17:27;9.30;46.80
39427;DHT22;25938;48.470;1.486;2022-12-18T07:19:53;9.40;46.80
39427;DHT22;25938;48.470;1.486;2022-12-18T07:22:19;9.30;46.80
39427;DHT22;25938;48.470;1.486;2022-12-18T07:24:44;9.40;46.80
39427;DHT22;25938;48.470;1.486;2022-12-18T07:27:10;9.40;46.80
39427;DHT22;25938;48.470;1.486;2022-12-18T07:29:35;9.40;46.80
39427;DHT22;25938;48.470;1.486;2022-12-18T07:32:01;9.40;46.80
39427;DHT22;25938;48.470;1.486;2022-12-18T07:34:27;9.30;46.80
39427;DHT22;25938;48.470;1.486;2022-12-18T07:36:52;9.30;46.70
39427;DHT22;25938;48.470;1.486;2022-12-18T07:39:18;9.40;46.80
39427;DHT22;25938;48.470;1.486;2022-12-18T07:41:44;9.30;46.80
39427;DHT22;25938;48.470;1.486;2022-12-18T07:44:29;9.30;46.80
39427;DHT22;25938;48.470;1.486;2022-12-18T07:46:55;9.30;47.70
39427;DHT22;25938;48.470;1.486;2022-12-18T07:49:20;9.40;48.00
39427;DHT22;25938;48.470;1.486;2022-12-18T07:51:46;9.40;48.10
39427;DHT22;25938;48.470;1.486;2022-12-18T07:54:14;9.30;48.00
39427;DHT22;25938;48.470;1.486;2022-12-18T07:56:40;9.40;48.70
39427;DHT22;25938;48.470;1.486;2022-12-18T07:59:05;9.40;48.10
39427;DHT22;25938;48.470;1.486;2022-12-18T08:01:31;9.40;48.10
39427;DHT22;25938;48.470;1.486;2022-12-18T08:03:58;9.40;48.00
39427;DHT22;25938;48.470;1.486;2022-12-18T08:06:24;9.40;48.00
39427;DHT22;25938;48.470;1.486;2022-12-18T08:08:54;9.40;48.00
39427;DHT22;25938;48.470;1.486;2022-12-18T08:11:19;9.40;47.90
39427;DHT22;25938;48.470;1.486;2022-12-18T08:13:45;9.40;47.90
39427;DHT22;25938;48.470;1.486;2022-12-18T08:16:11;9.40;47.90
39427;DHT22;25938;48.470;1.486;2022-12-18T08:18:37;9.40;47.90
39427;DHT22;25938;48.470;1.486;2022-12-18T08:21:17;9.40;47.90
39427;DHT22;25938;48.470;1.486;2022-12-18T08:23:44;9.40;47.90
39427;DHT22;25938;48.470;1.486;2022-12-18T08:26:13;9.40;47.90
39427;DHT22;25938;48.470;1.486;2022-12-18T08:28:39;9.40;47.90
39427;DHT22;25938;48.470;1.486;2022-12-18T08:31:05;9.40;47.90
39427;DHT22;25938;48.470;1.486;2022-12-18T08:33:31;9.40;47.90
39427;DHT22;25938;48.470;1.486;2022-12-18T08:35:59;9.40;48.00
39427;DHT22;25938;48.470;1.486;2022-12-18T08:38:24;9.40;48.00
39427;DHT22;25938;48.470;1.486;2022-12-18T08:41:00;9.40;48.00
39427;DHT22;25938;48.470;1.486;2022-12-18T08:43:26;9.40;47.90
39427;DHT22;25938;48.470;1.486;2022-12-18T08:46:11;9.40;48.00
39427;DHT22;25938;48.470;1.486;2022-12-18T08:48:37;9.40;48.00
39427;DHT22;25938;48.470;1.486;2022-12-18T08:51:03;9.40;48.00
39427;DHT22;25938;48.470;1.486;2022-12-18T08:53:28;9.40;48.10
39427;DHT22;25938;48.470;1.486;2022-12-18T08:55:56;9.40;48.10
39427;DHT22;25938;48.470;1.486;2022-12-18T08:58:22;9.40;48.10
39427;DHT22;25938;48.470;1.486;2022-12-18T09:00:47;9.40;48.10
39427;DHT22;25938;48.470;1.486;2022-12-18T09:03:14;9.40;48.80
39427;DHT22;25938;48.470;1.486;2022-12-18T09:05:40;9.40;48.90
39427;DHT22;25938;48.470;1.486;2022-12-18T09:08:06;9.40;48.20
39427;DHT22;25938;48.470;1.486;2022-12-18T09:10:32;9.40;48.20
39427;DHT22;25938;48.470;1.486;2022-12-18T09:12:58;9.40;48.30
39427;DHT22;25938;48.470;1.486;2022-12-18T09:15:23;9.40;48.30
39427;DHT22;25938;48.470;1.486;2022-12-18T09:17:49;9.40;48.30
39427;DHT22;25938;48.470;1.486;2022-12-18T09:20:16;9.40;48.30
39427;DHT22;25938;48.470;1.486;2022-12-18T09:22:42;9.40;48.30
39427;DHT22;25938;48.470;1.486;2022-12-18T09:25:07;9.40;48.30
39427;DHT22;25938;48.470;1.486;2022-12-18T09:27:34;9.40;48.30
39427;DHT22;25938;48.470;1.486;2022-12-18T09:30:00;9.50;48.40
39427;DHT22;25938;48.470;1.486;2022-12-18T09:32:25;9.50;48.40
39427;DHT22;25938;48.470;1.486;2022-12-18T09:34:52;9.50;48.40
39427;DHT22;25938;48.470;1.486;2022-12-18T09:37:18;9.50;48.40
39427;DHT22;25938;48.470;1.486;2022-12-18T09:39:44;9.50;48.40
39427;DHT22;25938;48.470;1.486;2022-12-18T09:42:21;9.40;48.40
39427;DHT22;25938;48.470;1.486;2022-12-18T09:44:52;9.40;48.50
39427;DHT22;25938;48.470;1.486;2022-12-18T09:47:23;9.40;48.50
39427;DHT22;25938;48.470;1.486;2022-12-18T09:49:59;9.40;48.70
39427;DHT22;25938;48.470;1.486;2022-12-18T09:52:33;9.50;49.10
39427;DHT22;25938;48.470;1.486;2022-12-18T09:57:31;9.50;49.10
39427;DHT22;25938;48.470;1.486;2022-12-18T10:00:19;9.50;49.10
39427;DHT22;25938;48.470;1.486;2022-12-18T10:02:45;9.50;49.20
39427;DHT22;25938;48.470;1.486;2022-12-18T10:06:07;9.50;49.10
39427;DHT22;25938;48.470;1.486;2022-12-18T10:10:49;9.50;49.40
39427;DHT22;25938;48.470;1.486;2022-12-18T10:13:38;9.50;49.40
39427;DHT22;25938;48.470;1.486;2022-12-18T10:22:25;9.50;49.80
39427;DHT22;25938;48.470;1.486;2022-12-18T10:24:37;9.50;50.10
39427;DHT22;25938;48.470;1.486;2022-12-18T10:27:31;9.50;50.90
39427;DHT22;25938;48.470;1.486;2022-12-18T10:29:57;9.60;51.00
39427;DHT22;25938;48.470;1.486;2022-12-18T10:32:28;9.60;51.00
39427;DHT22;25938;48.470;1.486;2022-12-18T10:34:56;9.60;51.00
39427;DHT22;25938;48.470;1.486;2022-12-18T10:37:27;9.60;51.10
39427;DHT22;25938;48.470;1.486;2022-12-18T10:40:12;9.60;51.10
39427;DHT22;25938;48.470;1.486;2022-12-18T10:42:38;9.60;51.20
39427;DHT22;25938;48.470;1.486;2022-12-18T10:45:16;9.60;51.20
39427;DHT22;25938;48.470;1.486;2022-12-18T10:47:47;9.60;51.30
39427;DHT22;25938;48.470;1.486;2022-12-18T10:50:40;9.60;51.60
39427;DHT22;25938;48.470;1.486;2022-12-18T10:53:05;9.50;50.60
39427;DHT22;25938;48.470;1.486;2022-12-18T10:55:37;9.40;50.60
39427;DHT22;25938;48.470;1.486;2022-12-18T10:58:30;9.30;50.50
39427;DHT22;25938;48.470;1.486;2022-12-18T11:01:16;9.40;50.40
39427;DHT22;25938;48.470;1.486;2022-12-18T11:06:22;9.50;50.20
39427;DHT22;25938;48.470;1.486;2022-12-18T11:09:05;9.50;50.10
39427;DHT22;25938;48.470;1.486;2022-12-18T11:11:32;9.50;50.10
39427;DHT22;25938;48.470;1.486;2022-12-18T11:14:12;9.60;50.10
39427;DHT22;25938;48.470;1.486;2022-12-18T11:16:46;9.60;50.10
39427;DHT22;25938;48.470;1.486;2022-12-18T11:19:32;9.60;50.10
39427;DHT22;25938;48.470;1.486;2022-12-18T11:22:00;9.60;50.10
39427;DHT22;25938;48.470;1.486;2022-12-18T11:24:33;9.60;50.00
39427;DHT22;25938;48.470;1.486;2022-12-18T11:27:05;9.70;50.10
39427;DHT22;25938;48.470;1.486;2022-12-18T11:29:36;9.70;50.10
39427;DHT22;25938;48.470;1.486;2022-12-18T11:34:52;9.70;50.10
39427;DHT22;25938;48.470;1.486;2022-12-18T11:37:19;9.70;50.10
39427;DHT22;25938;48.470;1.486;2022-12-18T11:39:51;9.70;50.10
39427;DHT22;25938;48.470;1.486;2022-12-18T11:42:30;9.80;50.10
39427;DHT22;25938;48.470;1.486;2022-12-18T11:50:26;9.80;50.10
39427;DHT22;25938;48.470;1.486;2022-12-18T11:52:53;9.80;50.10
39427;DHT22;25938;48.470;1.486;2022-12-18T11:55:31;9.80;50.10
39427;DHT22;25938;48.470;1.486;2022-12-18T12:00:54;9.90;50.20
39427;DHT22;25938;48.470;1.486;2022-12-18T12:03:45;9.90;50.20
39427;DHT22;25938;48.470;1.486;2022-12-18T12:06:35;9.90;50.20
39427;DHT22;25938;48.470;1.486;2022-12-18T12:09:27;9.90;50.20
39427;DHT22;25938;48.470;1.486;2022-12-18T12:25:49;9.90;50.30
39427;DHT22;25938;48.470;1.486;2022-12-18T12:38:44;10.00;50.30
39427;DHT22;25938;48.470;1.486;2022-12-18T12:41:19;10.00;50.40
39427;DHT22;25938;48.470;1.486;2022-12-18T12:44:07;10.00;50.40
39427;DHT22;25938;48.470;1.486;2022-12-18T12:46:37;10.00;50.30
39427;DHT22;25938;48.470;1.486;2022-12-18T12:49:14;10.00;50.40
39427;DHT22;25938;48.470;1.486;2022-12-18T12:51:43;10.00;50.40
39427;DHT22;25938;48.470;1.486;2022-12-18T12:54:17;10.00;50.40
39427;DHT22;25938;48.470;1.486;2022-12-18T13:05:03;10.10;50.50
39427;DHT22;25938;48.470;1.486;2022-12-18T13:07:41;10.10;51.50
39427;DHT22;25938;48.470;1.486;2022-12-18T13:13:30;10.20;53.50
39427;DHT22;25938;48.470;1.486;2022-12-18T13:16:06;10.20;53.60
39427;DHT22;25938;48.470;1.486;2022-12-18T13:18:32;10.30;53.60
39427;DHT22;25938;48.470;1.486;2022-12-18T13:25:56;10.30;53.40
39427;DHT22;25938;48.470;1.486;2022-12-18T13:31:06;10.20;53.30
39427;DHT22;25938;48.470;1.486;2022-12-18T13:38:47;10.30;53.10
39427;DHT22;25938;48.470;1.486;2022-12-18T13:41:33;10.30;53.00
39427;DHT22;25938;48.470;1.486;2022-12-18T13:46:48;10.20;52.90
39427;DHT22;25938;48.470;1.486;2022-12-18T13:49:24;10.20;52.90
39427;DHT22;25938;48.470;1.486;2022-12-18T13:51:52;10.20;52.90
39427;DHT22;25938;48.470;1.486;2022-12-18T13:56:59;10.20;52.90
39427;DHT22;25938;48.470;1.486;2022-12-18T13:59:32;10.20;52.90
39427;DHT22;25938;48.470;1.486;2022-12-18T14:02:00;10.20;52.90
39427;DHT22;25938;48.470;1.486;2022-12-18T14:04:30;10.20;52.90
39427;DHT22;25938;48.470;1.486;2022-12-18T14:07:03;10.20;52.90
39427;DHT22;25938;48.470;1.486;2022-12-18T14:09:40;10.20;52.90
39427;DHT22;25938;48.470;1.486;2022-12-18T14:12:06;10.20;52.90
39427;DHT22;25938;48.470;1.486;2022-12-18T14:17:57;10.30;52.90
39427;DHT22;25938;48.470;1.486;2022-12-18T14:20:29;10.30;52.80
39427;DHT22;25938;48.470;1.486;2022-12-18T14:22:55;10.30;52.90
39427;DHT22;25938;48.470;1.486;2022-12-18T14:25:24;10.20;53.00
39427;DHT22;25938;48.470;1.486;2022-12-18T14:27:52;10.20;53.00
39427;DHT22;25938;48.470;1.486;2022-12-18T14:30:25;10.20;53.00
39427;DHT22;25938;48.470;1.486;2022-12-18T14:33:10;10.20;53.10
39427;DHT22;25938;48.470;1.486;2022-12-18T14:38:31;10.40;52.80
39427;DHT22;25938;48.470;1.486;2022-12-18T14:43:29;10.60;53.50
39427;DHT22;25938;48.470;1.486;2022-12-18T14:45:56;10.70;53.30
39427;DHT22;25938;48.470;1.486;2022-12-18T14:51:05;10.80;53.10
39427;DHT22;25938;48.470;1.486;2022-12-18T14:53:40;10.80;52.90
39427;DHT22;25938;48.470;1.486;2022-12-18T14:56:25;10.90;52.90
39427;DHT22;25938;48.470;1.486;2022-12-18T14:59:01;10.90;52.80
39427;DHT22;25938;48.470;1.486;2022-12-18T15:01:31;11.00;52.70
39427;DHT22;25938;48.470;1.486;2022-12-18T15:03:59;11.00;52.60
39427;DHT22;25938;48.470;1.486;2022-12-18T15:08:54;11.00;52.60
39427;DHT22;25938;48.470;1.486;2022-12-18T15:11:46;11.10;52.60
39427;DHT22;25938;48.470;1.486;2022-12-18T15:16:58;11.00;52.60
39427;DHT22;25938;48.470;1.486;2022-12-18T15:19:41;11.10;52.60
39427;DHT22;25938;48.470;1.486;2022-12-18T15:24:45;11.10;52.60
39427;DHT22;25938;48.470;1.486;2022-12-18T15:27:26;11.10;52.50
39427;DHT22;25938;48.470;1.486;2022-12-18T15:32:34;11.10;52.60
39427;DHT22;25938;48.470;1.486;2022-12-18T15:37:39;11.20;52.70
39427;DHT22;25938;48.470;1.486;2022-12-18T15:40:05;11.20;52.70
39427;DHT22;25938;48.470;1.486;2022-12-18T15:42:31;11.20;52.70
39427;DHT22;25938;48.470;1.486;2022-12-18T15:45:15;11.10;52.60
39427;DHT22;25938;48.470;1.486;2022-12-18T15:47:41;11.20;52.70
39427;DHT22;25938;48.470;1.486;2022-12-18T15:50:10;11.20;52.60
39427;DHT22;25938;48.470;1.486;2022-12-18T15:52:54;11.20;52.70
39427;DHT22;25938;48.470;1.486;2022-12-18T15:55:23;11.20;52.70
39427;DHT22;25938;48.470;1.486;2022-12-18T15:58:09;11.20;52.70
39427;DHT22;25938;48.470;1.486;2022-12-18T16:00:37;11.20;52.70
39427;DHT22;25938;48.470;1.486;2022-12-18T16:03:04;11.10;52.80
39427;DHT22;25938;48.470;1.486;2022-12-18T16:05:30;11.10;52.80
39427;DHT22;25938;48.470;1.486;2022-12-18T16:07:56;11.10;52.80
39427;DHT22;25938;48.470;1.486;2022-12-18T16:10:22;11.10;52.80
39427;DHT22;25938;48.470;1.486;2022-12-18T16:12:48;11.10;52.90
39427;DHT22;25938;48.470;1.486;2022-12-18T16:15:14;11.10;53.00
39427;DHT22;25938;48.470;1.486;2022-12-18T16:17:45;11.20;53.30
39427;DHT22;25938;48.470;1.486;2022-12-18T16:20:16;11.20;53.70
39427;DHT22;25938;48.470;1.486;2022-12-18T16:22:43;11.20;53.80
39427;DHT22;25938;48.470;1.486;2022-12-18T16:25:24;11.20;53.90
39427;DHT22;25938;48.470;1.486;2022-12-18T16:27:51;11.20;53.90
39427;DHT22;25938;48.470;1.486;2022-12-18T16:30:20;11.20;53.90
39427;DHT22;25938;48.470;1.486;2022-12-18T16:32:46;11.20;53.90
39427;DHT22;25938;48.470;1.486;2022-12-18T16:35:13;11.20;53.90
39427;DHT22;25938;48.470;1.486;2022-12-18T16:37:40;11.20;54.00
39427;DHT22;25938;48.470;1.486;2022-12-18T16:40:07;11.10;54.00
39427;DHT22;25938;48.470;1.486;2022-12-18T16:42:37;11.10;54.00
39427;DHT22;25938;48.470;1.486;2022-12-18T16:45:05;11.20;54.00
39427;DHT22;25938;48.470;1.486;2022-12-18T16:47:32;11.20;54.10
39427;DHT22;25938;48.470;1.486;2022-12-18T16:49:58;11.10;54.10
39427;DHT22;25938;48.470;1.486;2022-12-18T16:52:23;11.10;54.10
39427;DHT22;25938;48.470;1.486;2022-12-18T16:54:49;11.20;54.10
39427;DHT22;25938;48.470;1.486;2022-12-18T16:57:17;11.10;54.10
39427;DHT22;25938;48.470;1.486;2022-12-18T16:59:44;11.10;54.10
39427;DHT22;25938;48.470;1.486;2022-12-18T17:02:20;11.10;54.10
39427;DHT22;25938;48.470;1.486;2022-12-18T17:04:46;11.10;54.20
39427;DHT22;25938;48.470;1.486;2022-12-18T17:07:13;11.10;54.20
39427;DHT22;25938;48.470;1.486;2022-12-18T17:09:39;11.10;54.20
39427;DHT22;25938;48.470;1.486;2022-12-18T17:12:05;11.10;54.30
39427;DHT22;25938;48.470;1.486;2022-12-18T17:14:32;11.10;54.30
39427;DHT22;25938;48.470;1.486;2022-12-18T17:16:58;11.10;54.30
39427;DHT22;25938;48.470;1.486;2022-12-18T17:19:26;11.10;54.30
39427;DHT22;25938;48.470;1.486;2022-12-18T17:21:52;11.10;54.40
39427;DHT22;25938;48.470;1.486;2022-12-18T17:24:19;11.10;54.40
39427;DHT22;25938;48.470;1.486;2022-12-18T17:26:45;11.10;54.60
39427;DHT22;25938;48.470;1.486;2022-12-18T17:29:16;11.10;54.50
39427;DHT22;25938;48.470;1.486;2022-12-18T17:31:42;11.10;54.50
39427;DHT22;25938;48.470;1.486;2022-12-18T17:34:12;11.10;54.50
39427;DHT22;25938;48.470;1.486;2022-12-18T17:36:38;11.10;54.50
39427;DHT22;25938;48.470;1.486;2022-12-18T17:39:05;11.20;54.70
39427;DHT22;25938;48.470;1.486;2022-12-18T17:41:32;11.20;54.70
39427;DHT22;25938;48.470;1.486;2022-12-18T17:44:00;11.20;54.70
39427;DHT22;25938;48.470;1.486;2022-12-18T17:46:28;11.20;54.80
39427;DHT22;25938;48.470;1.486;2022-12-18T17:48:55;11.20;54.80
39427;DHT22;25938;48.470;1.486;2022-12-18T17:51:21;11.20;54.80
39427;DHT22;25938;48.470;1.486;2022-12-18T17:53:47;11.20;54.80
39427;DHT22;25938;48.470;1.486;2022-12-18T17:56:14;11.20;54.80
39427;DHT22;25938;48.470;1.486;2022-12-18T17:58:41;11.20;54.90
39427;DHT22;25938;48.470;1.486;2022-12-18T18:01:07;11.20;54.90
39427;DHT22;25938;48.470;1.486;2022-12-18T18:03:33;11.20;54.90
39427;DHT22;25938;48.470;1.486;2022-12-18T18:06:02;11.20;55.00
39427;DHT22;25938;48.470;1.486;2022-12-18T18:08:28;11.20;55.00
39427;DHT22;25938;48.470;1.486;2022-12-18T18:10:54;11.20;55.00
39427;DHT22;25938;48.470;1.486;2022-12-18T18:13:22;11.20;55.00
39427;DHT22;25938;48.470;1.486;2022-12-18T18:16:07;11.30;55.10